sensor_id;sensor_type;location;lat;lon;timestamp;temperature;humidity
30379;DHT22;17168;49.164;9.060;2023-07-31T00:01:57;20.20;67.20
30379;DHT22;17168;49.164;9.060;2023-07-31T00:04:29;20.10;67.40
30379;DHT22;17168;49.164;9.060;2023-07-31T00:07:02;20.10;67.90
30379;DHT22;17168;49.164;9.060;2023-07-31T00:09:39;19.90;68.10
30379;DHT22;17168;49.164;9.060;2023-07-31T00:12:11;19.80;68.60
30379;DHT22;17168;49.164;9.060;2023-07-31T00:14:43;19.70;69.00
30379;DHT22;17168;49.164;9.060;2023-07-31T00:17:17;19.60;69.50
30379;DHT22;17168;49.164;9.060;2023-07-31T00:19:49;19.50;70.00
30379;DHT22;17168;49.164;9.060;2023-07-31T00:22:22;19.40;70.90
30379;DHT22;17168;49.164;9.060;2023-07-31T00:24:57;19.40;71.70
30379;DHT22;17168;49.164;9.060;2023-07-31T00:27:30;19.30;72.30
30379;DHT22;17168;49.164;9.060;2023-07-31T00:30:03;19.20;72.80
30379;DHT22;17168;49.164;9.060;2023-07-31T00:32:36;19.10;73.20
30379;DHT22;17168;49.164;9.060;2023-07-31T00:35:08;19.10;73.50
30379;DHT22;17168;49.164;9.060;2023-07-31T00:37:41;19.00;73.70
30379;DHT22;17168;49.164;9.060;2023-07-31T00:40:16;18.90;74.20
30379;DHT22;17168;49.164;9.060;2023-07-31T00:42:48;18.90;74.50
30379;DHT22;17168;49.164;9.060;2023-07-31T00:45:22;18.80;74.50
30379;DHT22;17168;49.164;9.060;2023-07-31T00:47:56;18.70;74.80
30379;DHT22;17168;49.164;9.060;2023-07-31T00:50:28;18.70;75.00
30379;DHT22;17168;49.164;9.060;2023-07-31T00:53:04;18.60;75.20
30379;DHT22;17168;49.164;9.060;2023-07-31T00:55:39;18.60;75.30
30379;DHT22;17168;49.164;9.060;2023-07-31T00:58:13;18.50;75.60
30379;DHT22;17168;49.164;9.060;2023-07-31T01:00:45;18.50;75.90
30379;DHT22;17168;49.164;9.060;2023-07-31T01:03:18;18.50;76.20
30379;DHT22;17168;49.164;9.060;2023-07-31T01:05:59;18.50;76.60
30379;DHT22;17168;49.164;9.060;2023-07-31T01:08:39;18.40;76.60
30379;DHT22;17168;49.164;9.060;2023-07-31T01:11:20;18.40;76.60
30379;DHT22;17168;49.164;9.060;2023-07-31T01:13:54;18.30;76.50
30379;DHT22;17168;49.164;9.060;2023-07-31T01:16:27;18.40;76.50
30379;DHT22;17168;49.164;9.060;2023-07-31T01:18:59;18.30;76.10
30379;DHT22;17168;49.164;9.060;2023-07-31T01:24:55;18.30;76.30
30379;DHT22;17168;49.164;9.060;2023-07-31T01:27:42;18.30;76.30
30379;DHT22;17168;49.164;9.060;2023-07-31T01:30:17;18.30;76.40
30379;DHT22;17168;49.164;9.060;2023-07-31T01:32:54;18.30;76.40
30379;DHT22;17168;49.164;9.060;2023-07-31T01:35:28;18.30;76.40
30379;DHT22;17168;49.164;9.060;2023-07-31T01:38:00;18.30;76.70
30379;DHT22;17168;49.164;9.060;2023-07-31T01:40:33;18.30;77.10
30379;DHT22;17168;49.164;9.060;2023-07-31T01:43:07;18.30;77.70
30379;DHT22;17168;49.164;9.060;2023-07-31T01:45:40;18.30;78.30
30379;DHT22;17168;49.164;9.060;2023-07-31T01:48:12;18.30;78.60
30379;DHT22;17168;49.164;9.060;2023-07-31T01:50:44;18.30;78.80
30379;DHT22;17168;49.164;9.060;2023-07-31T01:53:17;18.30;78.90
30379;DHT22;17168;49.164;9.060;2023-07-31T01:55:49;18.20;79.00
30379;DHT22;17168;49.164;9.060;2023-07-31T01:58:24;18.20;79.30
30379;DHT22;17168;49.164;9.060;2023-07-31T02:00:56;18.20;79.60
30379;DHT22;17168;49.164;9.060;2023-07-31T02:03:28;18.20;80.00
30379;DHT22;17168;49.164;9.060;2023-07-31T02:06:01;18.20;80.50
30379;DHT22;17168;49.164;9.060;2023-07-31T02:08:33;18.20;81.00
30379;DHT22;17168;49.164;9.060;2023-07-31T02:11:06;18.20;81.20
30379;DHT22;17168;49.164;9.060;2023-07-31T02:13:41;18.20;81.40
30379;DHT22;17168;49.164;9.060;2023-07-31T02:16:13;18.20;81.60
30379;DHT22;17168;49.164;9.060;2023-07-31T02:18:46;18.20;82.00
30379;DHT22;17168;49.164;9.060;2023-07-31T02:21:18;18.20;82.00
30379;DHT22;17168;49.164;9.060;2023-07-31T02:23:50;18.20;81.60
30379;DHT22;17168;49.164;9.060;2023-07-31T02:26:23;18.20;81.30
30379;DHT22;17168;49.164;9.060;2023-07-31T02:28:57;18.20;81.20
30379;DHT22;17168;49.164;9.060;2023-07-31T02:31:30;18.20;81.50
30379;DHT22;17168;49.164;9.060;2023-07-31T02:34:02;18.20;81.90
30379;DHT22;17168;49.164;9.060;2023-07-31T02:36:35;18.20;82.00
30379;DHT22;17168;49.164;9.060;2023-07-31T02:39:08;18.20;81.80
30379;DHT22;17168;49.164;9.060;2023-07-31T02:41:40;18.20;82.00
30379;DHT22;17168;49.164;9.060;2023-07-31T02:44:15;18.20;82.00
30379;DHT22;17168;49.164;9.060;2023-07-31T02:46:47;18.10;82.20
30379;DHT22;17168;49.164;9.060;2023-07-31T02:49:19;18.10;83.20
30379;DHT22;17168;49.164;9.060;2023-07-31T02:51:52;18.10;83.90
30379;DHT22;17168;49.164;9.060;2023-07-31T02:54:24;18.10;84.10
30379;DHT22;17168;49.164;9.060;2023-07-31T02:56:56;18.10;84.30
30379;DHT22;17168;49.164;9.060;2023-07-31T02:59:31;18.00;84.80
30379;DHT22;17168;49.164;9.060;2023-07-31T03:02:04;18.00;85.50
30379;DHT22;17168;49.164;9.060;2023-07-31T03:04:36;18.00;85.80
30379;DHT22;17168;49.164;9.060;2023-07-31T03:07:08;17.90;86.00
30379;DHT22;17168;49.164;9.060;2023-07-31T03:09:41;17.90;85.60
30379;DHT22;17168;49.164;9.060;2023-07-31T03:12:13;17.90;84.50
30379;DHT22;17168;49.164;9.060;2023-07-31T03:14:48;17.90;84.00
30379;DHT22;17168;49.164;9.060;2023-07-31T03:17:20;17.80;84.00
30379;DHT22;17168;49.164;9.060;2023-07-31T03:19:53;17.80;84.20
30379;DHT22;17168;49.164;9.060;2023-07-31T03:22:25;17.80;84.30
30379;DHT22;17168;49.164;9.060;2023-07-31T03:24:57;17.90;84.70
30379;DHT22;17168;49.164;9.060;2023-07-31T03:27:30;17.80;85.10
30379;DHT22;17168;49.164;9.060;2023-07-31T03:30:06;17.80;85.50
30379;DHT22;17168;49.164;9.060;2023-07-31T03:32:39;17.80;86.10
30379;DHT22;17168;49.164;9.060;2023-07-31T03:35:13;17.90;86.60
30379;DHT22;17168;49.164;9.060;2023-07-31T03:37:46;17.80;86.70
30379;DHT22;17168;49.164;9.060;2023-07-31T03:40:18;17.80;86.60
30379;DHT22;17168;49.164;9.060;2023-07-31T03:42:50;17.80;87.00
30379;DHT22;17168;49.164;9.060;2023-07-31T03:45:25;17.80;87.20
30379;DHT22;17168;49.164;9.060;2023-07-31T03:47:58;17.70;87.30
30379;DHT22;17168;49.164;9.060;2023-07-31T03:50:30;17.70;87.50
30379;DHT22;17168;49.164;9.060;2023-07-31T03:53:03;17.70;88.00
30379;DHT22;17168;49.164;9.060;2023-07-31T03:55:35;17.70;88.40
30379;DHT22;17168;49.164;9.060;2023-07-31T03:58:07;17.70;88.70
30379;DHT22;17168;49.164;9.060;2023-07-31T04:00:42;17.70;88.70
30379;DHT22;17168;49.164;9.060;2023-07-31T04:03:15;17.70;88.40
30379;DHT22;17168;49.164;9.060;2023-07-31T04:05:47;17.60;88.60
30379;DHT22;17168;49.164;9.060;2023-07-31T04:08:19;17.60;89.00
30379;DHT22;17168;49.164;9.060;2023-07-31T04:10:51;17.60;88.90
30379;DHT22;17168;49.164;9.060;2023-07-31T04:13:24;17.60;88.80
30379;DHT22;17168;49.164;9.060;2023-07-31T04:16:02;17.60;89.10
30379;DHT22;17168;49.164;9.060;2023-07-31T04:18:34;17.60;89.50
30379;DHT22;17168;49.164;9.060;2023-07-31T04:21:07;17.60;89.50
30379;DHT22;17168;49.164;9.060;2023-07-31T04:23:39;17.60;89.70
30379;DHT22;17168;49.164;9.060;2023-07-31T04:26:11;17.60;89.80
30379;DHT22;17168;49.164;9.060;2023-07-31T04:28:43;17.60;89.80
30379;DHT22;17168;49.164;9.060;2023-07-31T04:31:18;17.60;89.50
30379;DHT22;17168;49.164;9.060;2023-07-31T04:33:51;17.60;89.80
30379;DHT22;17168;49.164;9.060;2023-07-31T04:36:23;17.70;90.00
30379;DHT22;17168;49.164;9.060;2023-07-31T04:38:56;17.70;90.10
30379;DHT22;17168;49.164;9.060;2023-07-31T04:41:29;17.70;90.20
30379;DHT22;17168;49.164;9.060;2023-07-31T04:44:02;17.80;90.50
30379;DHT22;17168;49.164;9.060;2023-07-31T04:46:42;17.80;90.90
30379;DHT22;17168;49.164;9.060;2023-07-31T04:49:14;17.80;91.00
30379;DHT22;17168;49.164;9.060;2023-07-31T04:51:47;17.80;90.90
30379;DHT22;17168;49.164;9.060;2023-07-31T04:54:21;17.80;90.90
30379;DHT22;17168;49.164;9.060;2023-07-31T04:56:57;17.90;90.60
30379;DHT22;17168;49.164;9.060;2023-07-31T04:59:41;17.90;89.90
30379;DHT22;17168;49.164;9.060;2023-07-31T05:02:27;17.90;89.30
30379;DHT22;17168;49.164;9.060;2023-07-31T05:05:06;17.90;89.00
30379;DHT22;17168;49.164;9.060;2023-07-31T05:07:39;17.90;88.40
30379;DHT22;17168;49.164;9.060;2023-07-31T05:10:14;17.90;86.40
30379;DHT22;17168;49.164;9.060;2023-07-31T05:12:46;17.90;84.70
30379;DHT22;17168;49.164;9.060;2023-07-31T05:15:20;17.90;82.60
30379;DHT22;17168;49.164;9.060;2023-07-31T05:17:59;18.00;81.60
30379;DHT22;17168;49.164;9.060;2023-07-31T05:20:33;18.10;80.90
30379;DHT22;17168;49.164;9.060;2023-07-31T05:23:09;18.10;79.70
30379;DHT22;17168;49.164;9.060;2023-07-31T05:25:42;18.20;79.60
30379;DHT22;17168;49.164;9.060;2023-07-31T05:30:50;18.30;79.10
30379;DHT22;17168;49.164;9.060;2023-07-31T05:33:32;18.40;78.70
30379;DHT22;17168;49.164;9.060;2023-07-31T05:36:04;18.40;78.30
30379;DHT22;17168;49.164;9.060;2023-07-31T05:38:37;18.50;78.40
30379;DHT22;17168;49.164;9.060;2023-07-31T05:41:12;18.50;77.90
30379;DHT22;17168;49.164;9.060;2023-07-31T05:43:44;18.60;76.90
30379;DHT22;17168;49.164;9.060;2023-07-31T05:46:16;18.70;76.70
30379;DHT22;17168;49.164;9.060;2023-07-31T05:48:51;18.70;76.40
30379;DHT22;17168;49.164;9.060;2023-07-31T05:51:23;18.70;76.40
30379;DHT22;17168;49.164;9.060;2023-07-31T05:53:56;18.80;75.70
30379;DHT22;17168;49.164;9.060;2023-07-31T05:56:28;18.90;75.40
30379;DHT22;17168;49.164;9.060;2023-07-31T05:59:00;18.90;75.40
30379;DHT22;17168;49.164;9.060;2023-07-31T06:01:33;19.00;74.50
30379;DHT22;17168;49.164;9.060;2023-07-31T06:04:08;19.00;74.90
30379;DHT22;17168;49.164;9.060;2023-07-31T06:06:40;19.10;75.10
30379;DHT22;17168;49.164;9.060;2023-07-31T06:09:13;19.10;75.30
30379;DHT22;17168;49.164;9.060;2023-07-31T06:11:46;19.20;75.20
30379;DHT22;17168;49.164;9.060;2023-07-31T06:14:18;19.30;74.70
30379;DHT22;17168;49.164;9.060;2023-07-31T06:16:50;19.30;74.10
30379;DHT22;17168;49.164;9.060;2023-07-31T06:19:25;19.40;73.40
30379;DHT22;17168;49.164;9.060;2023-07-31T06:21:57;19.40;72.80
30379;DHT22;17168;49.164;9.060;2023-07-31T06:24:30;19.50;72.90
30379;DHT22;17168;49.164;9.060;2023-07-31T06:27:07;19.50;72.80
30379;DHT22;17168;49.164;9.060;2023-07-31T06:29:39;19.60;73.10
30379;DHT22;17168;49.164;9.060;2023-07-31T06:32:11;19.70;73.00
30379;DHT22;17168;49.164;9.060;2023-07-31T06:34:46;19.70;72.10
30379;DHT22;17168;49.164;9.060;2023-07-31T06:37:19;19.70;71.30
30379;DHT22;17168;49.164;9.060;2023-07-31T06:39:53;19.80;71.70
30379;DHT22;17168;49.164;9.060;2023-07-31T06:42:26;19.80;71.40
30379;DHT22;17168;49.164;9.060;2023-07-31T06:45:02;19.90;71.60
30379;DHT22;17168;49.164;9.060;2023-07-31T06:47:34;19.90;71.40
30379;DHT22;17168;49.164;9.060;2023-07-31T06:50:09;20.00;71.10
30379;DHT22;17168;49.164;9.060;2023-07-31T06:52:41;20.00;71.40
30379;DHT22;17168;49.164;9.060;2023-07-31T06:55:18;20.00;71.10
30379;DHT22;17168;49.164;9.060;2023-07-31T06:57:52;20.00;70.70
30379;DHT22;17168;49.164;9.060;2023-07-31T07:00:24;20.10;71.70
30379;DHT22;17168;49.164;9.060;2023-07-31T07:03:00;20.10;71.40
30379;DHT22;17168;49.164;9.060;2023-07-31T07:05:35;20.10;71.90
30379;DHT22;17168;49.164;9.060;2023-07-31T07:08:07;20.20;70.80
30379;DHT22;17168;49.164;9.060;2023-07-31T07:10:47;20.20;71.00
30379;DHT22;17168;49.164;9.060;2023-07-31T07:13:21;20.20;71.00
30379;DHT22;17168;49.164;9.060;2023-07-31T07:15:53;20.20;71.00
30379;DHT22;17168;49.164;9.060;2023-07-31T07:18:26;20.20;71.00
30379;DHT22;17168;49.164;9.060;2023-07-31T07:21:00;20.20;70.90
30379;DHT22;17168;49.164;9.060;2023-07-31T07:23:34;20.20;70.80
30379;DHT22;17168;49.164;9.060;2023-07-31T07:26:06;20.20;70.60
30379;DHT22;17168;49.164;9.060;2023-07-31T07:28:38;20.20;70.90
30379;DHT22;17168;49.164;9.060;2023-07-31T07:31:11;20.20;71.00
30379;DHT22;17168;49.164;9.060;2023-07-31T07:33:43;20.20;70.60
30379;DHT22;17168;49.164;9.060;2023-07-31T07:36:18;20.20;71.60
30379;DHT22;17168;49.164;9.060;2023-07-31T07:38:50;20.20;71.30
30379;DHT22;17168;49.164;9.060;2023-07-31T07:41:23;20.20;71.60
30379;DHT22;17168;49.164;9.060;2023-07-31T07:43:55;20.20;70.90
30379;DHT22;17168;49.164;9.060;2023-07-31T07:46:27;20.30;71.20
30379;DHT22;17168;49.164;9.060;2023-07-31T07:49:00;20.40;71.80
30379;DHT22;17168;49.164;9.060;2023-07-31T07:51:34;20.40;72.10
30379;DHT22;17168;49.164;9.060;2023-07-31T07:54:07;20.50;71.80
30379;DHT22;17168;49.164;9.060;2023-07-31T07:56:39;20.60;72.40
30379;DHT22;17168;49.164;9.060;2023-07-31T07:59:11;20.70;72.40
30379;DHT22;17168;49.164;9.060;2023-07-31T08:01:43;20.80;72.00
30379;DHT22;17168;49.164;9.060;2023-07-31T08:04:16;20.80;70.60
30379;DHT22;17168;49.164;9.060;2023-07-31T08:06:50;20.80;70.70
30379;DHT22;17168;49.164;9.060;2023-07-31T08:09:23;20.90;70.60
30379;DHT22;17168;49.164;9.060;2023-07-31T08:11:55;20.90;70.40
30379;DHT22;17168;49.164;9.060;2023-07-31T08:14:30;21.00;71.00
30379;DHT22;17168;49.164;9.060;2023-07-31T08:17:04;21.00;71.30
30379;DHT22;17168;49.164;9.060;2023-07-31T08:19:36;21.10;71.10
30379;DHT22;17168;49.164;9.060;2023-07-31T08:22:11;21.20;70.70
30379;DHT22;17168;49.164;9.060;2023-07-31T08:24:43;21.20;71.30
30379;DHT22;17168;49.164;9.060;2023-07-31T08:27:16;21.30;70.50
30379;DHT22;17168;49.164;9.060;2023-07-31T08:29:48;21.40;69.60
30379;DHT22;17168;49.164;9.060;2023-07-31T08:32:20;21.40;68.90
30379;DHT22;17168;49.164;9.060;2023-07-31T08:34:55;21.40;69.00
30379;DHT22;17168;49.164;9.060;2023-07-31T08:37:29;21.50;68.60
30379;DHT22;17168;49.164;9.060;2023-07-31T08:40:03;21.50;68.40
30379;DHT22;17168;49.164;9.060;2023-07-31T08:42:43;21.50;68.40
30379;DHT22;17168;49.164;9.060;2023-07-31T08:45:17;21.50;68.90
30379;DHT22;17168;49.164;9.060;2023-07-31T08:47:50;21.50;69.50
30379;DHT22;17168;49.164;9.060;2023-07-31T08:50:25;21.50;68.50
30379;DHT22;17168;49.164;9.060;2023-07-31T08:53:00;21.50;69.00
30379;DHT22;17168;49.164;9.060;2023-07-31T08:55:34;21.50;68.90
30379;DHT22;17168;49.164;9.060;2023-07-31T08:58:06;21.50;68.70
30379;DHT22;17168;49.164;9.060;2023-07-31T09:00:39;21.50;68.00
30379;DHT22;17168;49.164;9.060;2023-07-31T09:03:14;21.60;68.20
30379;DHT22;17168;49.164;9.060;2023-07-31T09:05:47;21.60;68.40
30379;DHT22;17168;49.164;9.060;2023-07-31T09:08:22;21.60;69.10
30379;DHT22;17168;49.164;9.060;2023-07-31T09:10:59;21.70;70.30
30379;DHT22;17168;49.164;9.060;2023-07-31T09:13:32;21.70;67.90
30379;DHT22;17168;49.164;9.060;2023-07-31T09:16:04;21.80;68.00
30379;DHT22;17168;49.164;9.060;2023-07-31T09:18:53;21.80;67.10
30379;DHT22;17168;49.164;9.060;2023-07-31T09:21:26;21.80;67.00
30379;DHT22;17168;49.164;9.060;2023-07-31T09:24:02;21.80;67.40
30379;DHT22;17168;49.164;9.060;2023-07-31T09:26:36;21.80;66.90
30379;DHT22;17168;49.164;9.060;2023-07-31T09:29:19;21.80;66.80
30379;DHT22;17168;49.164;9.060;2023-07-31T09:31:52;21.80;66.70
30379;DHT22;17168;49.164;9.060;2023-07-31T09:34:29;21.80;67.10
30379;DHT22;17168;49.164;9.060;2023-07-31T09:37:02;21.80;66.80
30379;DHT22;17168;49.164;9.060;2023-07-31T09:39:48;21.80;67.30
30379;DHT22;17168;49.164;9.060;2023-07-31T09:42:25;21.90;66.90
30379;DHT22;17168;49.164;9.060;2023-07-31T09:45:07;22.00;67.20
30379;DHT22;17168;49.164;9.060;2023-07-31T09:47:44;22.00;66.10
30379;DHT22;17168;49.164;9.060;2023-07-31T09:50:20;22.00;66.00
30379;DHT22;17168;49.164;9.060;2023-07-31T09:52:52;22.00;66.60
30379;DHT22;17168;49.164;9.060;2023-07-31T09:55:29;22.10;66.20
30379;DHT22;17168;49.164;9.060;2023-07-31T09:58:04;22.20;66.50
30379;DHT22;17168;49.164;9.060;2023-07-31T10:00:37;22.20;66.80
30379;DHT22;17168;49.164;9.060;2023-07-31T10:03:10;22.30;67.40
30379;DHT22;17168;49.164;9.060;2023-07-31T10:05:46;22.40;66.50
30379;DHT22;17168;49.164;9.060;2023-07-31T10:08:23;22.50;65.10
30379;DHT22;17168;49.164;9.060;2023-07-31T10:11:01;22.50;64.70
30379;DHT22;17168;49.164;9.060;2023-07-31T10:13:35;22.60;65.10
30379;DHT22;17168;49.164;9.060;2023-07-31T10:16:08;22.60;64.50
30379;DHT22;17168;49.164;9.060;2023-07-31T10:18:40;22.60;64.80
30379;DHT22;17168;49.164;9.060;2023-07-31T10:21:14;22.60;64.80
30379;DHT22;17168;49.164;9.060;2023-07-31T10:23:47;22.60;65.30
30379;DHT22;17168;49.164;9.060;2023-07-31T10:26:23;22.70;65.10
30379;DHT22;17168;49.164;9.060;2023-07-31T10:28:58;22.80;65.00
30379;DHT22;17168;49.164;9.060;2023-07-31T10:31:30;22.90;63.30
30379;DHT22;17168;49.164;9.060;2023-07-31T10:34:03;23.00;62.30
30379;DHT22;17168;49.164;9.060;2023-07-31T10:36:38;23.00;62.00
30379;DHT22;17168;49.164;9.060;2023-07-31T10:39:34;23.00;62.00
30379;DHT22;17168;49.164;9.060;2023-07-31T10:42:14;23.10;62.20
30379;DHT22;17168;49.164;9.060;2023-07-31T10:44:47;23.10;62.60
30379;DHT22;17168;49.164;9.060;2023-07-31T10:47:19;23.10;62.50
30379;DHT22;17168;49.164;9.060;2023-07-31T10:49:51;23.10;61.60
30379;DHT22;17168;49.164;9.060;2023-07-31T10:52:24;23.10;61.50
30379;DHT22;17168;49.164;9.060;2023-07-31T10:55:27;23.10;61.20
30379;DHT22;17168;49.164;9.060;2023-07-31T10:58:09;23.10;61.20
30379;DHT22;17168;49.164;9.060;2023-07-31T11:00:43;23.00;61.10
30379;DHT22;17168;49.164;9.060;2023-07-31T11:03:17;23.00;61.50
30379;DHT22;17168;49.164;9.060;2023-07-31T11:05:51;23.00;61.50
30379;DHT22;17168;49.164;9.060;2023-07-31T11:08:27;23.00;61.80
30379;DHT22;17168;49.164;9.060;2023-07-31T11:11:07;22.90;61.70
30379;DHT22;17168;49.164;9.060;2023-07-31T11:13:44;22.90;62.50
30379;DHT22;17168;49.164;9.060;2023-07-31T11:16:17;22.90;63.00
30379;DHT22;17168;49.164;9.060;2023-07-31T11:18:51;22.90;62.90
30379;DHT22;17168;49.164;9.060;2023-07-31T11:21:28;22.90;63.40
30379;DHT22;17168;49.164;9.060;2023-07-31T11:24:00;22.90;63.70
30379;DHT22;17168;49.164;9.060;2023-07-31T11:26:32;23.00;63.70
30379;DHT22;17168;49.164;9.060;2023-07-31T11:31:47;23.10;62.90
30379;DHT22;17168;49.164;9.060;2023-07-31T11:34:20;23.10;62.60
30379;DHT22;17168;49.164;9.060;2023-07-31T11:36:57;23.10;62.70
30379;DHT22;17168;49.164;9.060;2023-07-31T11:39:43;23.00;62.70
30379;DHT22;17168;49.164;9.060;2023-07-31T11:42:18;22.90;62.90
30379;DHT22;17168;49.164;9.060;2023-07-31T11:44:51;22.90;62.90
30379;DHT22;17168;49.164;9.060;2023-07-31T11:47:38;22.90;62.70
30379;DHT22;17168;49.164;9.060;2023-07-31T11:50:11;22.80;62.80
30379;DHT22;17168;49.164;9.060;2023-07-31T11:52:48;22.80;63.70
30379;DHT22;17168;49.164;9.060;2023-07-31T11:55:22;22.80;64.00
30379;DHT22;17168;49.164;9.060;2023-07-31T11:57:59;22.80;62.80
30379;DHT22;17168;49.164;9.060;2023-07-31T12:00:36;22.80;63.30
30379;DHT22;17168;49.164;9.060;2023-07-31T12:03:12;22.80;62.70
30379;DHT22;17168;49.164;9.060;2023-07-31T12:05:47;22.80;62.80
30379;DHT22;17168;49.164;9.060;2023-07-31T12:08:25;22.80;63.10
30379;DHT22;17168;49.164;9.060;2023-07-31T12:11:11;22.80;63.40
30379;DHT22;17168;49.164;9.060;2023-07-31T12:13:44;22.70;63.40
30379;DHT22;17168;49.164;9.060;2023-07-31T12:16:16;22.70;63.80
30379;DHT22;17168;49.164;9.060;2023-07-31T12:18:51;22.70;63.60
30379;DHT22;17168;49.164;9.060;2023-07-31T12:21:27;22.70;64.10
30379;DHT22;17168;49.164;9.060;2023-07-31T12:23:59;22.80;63.30
30379;DHT22;17168;49.164;9.060;2023-07-31T12:26:34;22.80;63.60
30379;DHT22;17168;49.164;9.060;2023-07-31T12:29:07;22.80;64.50
30379;DHT22;17168;49.164;9.060;2023-07-31T12:31:41;22.80;64.40
30379;DHT22;17168;49.164;9.060;2023-07-31T12:34:20;22.90;64.60
30379;DHT22;17168;49.164;9.060;2023-07-31T12:36:53;22.90;64.20
30379;DHT22;17168;49.164;9.060;2023-07-31T12:39:26;23.00;63.60
30379;DHT22;17168;49.164;9.060;2023-07-31T12:42:00;23.00;63.20
30379;DHT22;17168;49.164;9.060;2023-07-31T12:44:39;23.00;64.40
30379;DHT22;17168;49.164;9.060;2023-07-31T12:47:22;23.10;64.50
30379;DHT22;17168;49.164;9.060;2023-07-31T12:50:02;23.10;63.80
30379;DHT22;17168;49.164;9.060;2023-07-31T12:52:35;23.10;63.40
30379;DHT22;17168;49.164;9.060;2023-07-31T12:55:21;23.10;63.30
30379;DHT22;17168;49.164;9.060;2023-07-31T12:57:57;23.10;62.40
30379;DHT22;17168;49.164;9.060;2023-07-31T13:00:38;23.10;62.90
30379;DHT22;17168;49.164;9.060;2023-07-31T13:03:10;23.10;62.80
30379;DHT22;17168;49.164;9.060;2023-07-31T13:05:51;23.10;62.90
30379;DHT22;17168;49.164;9.060;2023-07-31T13:08:33;23.10;62.90
30379;DHT22;17168;49.164;9.060;2023-07-31T13:11:07;23.10;63.50
30379;DHT22;17168;49.164;9.060;2023-07-31T13:13:39;23.10;63.40
30379;DHT22;17168;49.164;9.060;2023-07-31T13:16:12;23.20;62.70
30379;DHT22;17168;49.164;9.060;2023-07-31T13:18:54;23.20;62.90
30379;DHT22;17168;49.164;9.060;2023-07-31T13:21:29;23.30;63.20
30379;DHT22;17168;49.164;9.060;2023-07-31T13:24:01;23.30;62.90
30379;DHT22;17168;49.164;9.060;2023-07-31T13:26:36;23.40;63.00
30379;DHT22;17168;49.164;9.060;2023-07-31T13:29:12;23.50;62.40
30379;DHT22;17168;49.164;9.060;2023-07-31T13:31:48;23.50;63.00
30379;DHT22;17168;49.164;9.060;2023-07-31T13:34:26;23.60;62.90
30379;DHT22;17168;49.164;9.060;2023-07-31T13:37:02;23.80;63.40
30379;DHT22;17168;49.164;9.060;2023-07-31T13:42:49;24.00;62.60
30379;DHT22;17168;49.164;9.060;2023-07-31T13:45:23;24.10;61.50
30379;DHT22;17168;49.164;9.060;2023-07-31T13:48:01;24.20;62.10
30379;DHT22;17168;49.164;9.060;2023-07-31T13:50:39;24.20;61.80
30379;DHT22;17168;49.164;9.060;2023-07-31T13:53:26;24.30;61.30
30379;DHT22;17168;49.164;9.060;2023-07-31T13:55:58;24.30;60.90
30379;DHT22;17168;49.164;9.060;2023-07-31T13:58:34;24.40;60.40
30379;DHT22;17168;49.164;9.060;2023-07-31T14:01:18;24.40;60.60
30379;DHT22;17168;49.164;9.060;2023-07-31T14:04:05;24.40;61.10
30379;DHT22;17168;49.164;9.060;2023-07-31T14:06:46;24.40;61.10
30379;DHT22;17168;49.164;9.060;2023-07-31T14:09:46;24.30;61.50
30379;DHT22;17168;49.164;9.060;2023-07-31T14:12:19;24.30;61.20
30379;DHT22;17168;49.164;9.060;2023-07-31T14:15:14;24.30;61.30
30379;DHT22;17168;49.164;9.060;2023-07-31T14:17:53;24.30;61.00
30379;DHT22;17168;49.164;9.060;2023-07-31T14:20:43;24.20;61.20
30379;DHT22;17168;49.164;9.060;2023-07-31T14:23:31;24.30;61.80
30379;DHT22;17168;49.164;9.060;2023-07-31T14:26:18;24.30;61.30
30379;DHT22;17168;49.164;9.060;2023-07-31T14:29:16;24.30;61.50
30379;DHT22;17168;49.164;9.060;2023-07-31T14:31:51;24.30;61.50
30379;DHT22;17168;49.164;9.060;2023-07-31T14:34:24;24.30;62.10
30379;DHT22;17168;49.164;9.060;2023-07-31T14:37:26;24.20;61.50
30379;DHT22;17168;49.164;9.060;2023-07-31T14:40:00;24.30;62.00
30379;DHT22;17168;49.164;9.060;2023-07-31T14:42:36;24.20;62.20
30379;DHT22;17168;49.164;9.060;2023-07-31T14:45:18;24.20;62.20
30379;DHT22;17168;49.164;9.060;2023-07-31T14:47:53;24.20;61.50
30379;DHT22;17168;49.164;9.060;2023-07-31T14:50:26;24.20;62.40
30379;DHT22;17168;49.164;9.060;2023-07-31T14:53:03;24.10;62.20
30379;DHT22;17168;49.164;9.060;2023-07-31T14:55:42;24.10;62.10
30379;DHT22;17168;49.164;9.060;2023-07-31T14:58:28;24.10;62.60
30379;DHT22;17168;49.164;9.060;2023-07-31T15:01:01;24.00;62.40
30379;DHT22;17168;49.164;9.060;2023-07-31T15:03:34;24.00;62.90
30379;DHT22;17168;49.164;9.060;2023-07-31T15:06:14;23.90;62.90
30379;DHT22;17168;49.164;9.060;2023-07-31T15:08:49;23.90;63.20
30379;DHT22;17168;49.164;9.060;2023-07-31T15:11:27;23.80;62.60
30379;DHT22;17168;49.164;9.060;2023-07-31T15:14:02;23.80;63.00
30379;DHT22;17168;49.164;9.060;2023-07-31T15:16:34;23.80;63.70
30379;DHT22;17168;49.164;9.060;2023-07-31T15:19:07;23.80;63.70
30379;DHT22;17168;49.164;9.060;2023-07-31T15:21:41;23.80;63.80
30379;DHT22;17168;49.164;9.060;2023-07-31T15:24:16;23.90;63.60
30379;DHT22;17168;49.164;9.060;2023-07-31T15:26:49;23.90;63.20
30379;DHT22;17168;49.164;9.060;2023-07-31T15:29:25;23.90;63.30
30379;DHT22;17168;49.164;9.060;2023-07-31T15:31:59;24.00;63.40
30379;DHT22;17168;49.164;9.060;2023-07-31T15:34:40;24.00;63.20
30379;DHT22;17168;49.164;9.060;2023-07-31T15:37:13;24.00;62.50
30379;DHT22;17168;49.164;9.060;2023-07-31T15:39:48;24.00;62.30
30379;DHT22;17168;49.164;9.060;2023-07-31T15:42:38;23.90;62.70
30379;DHT22;17168;49.164;9.060;2023-07-31T15:45:27;24.00;62.50
30379;DHT22;17168;49.164;9.060;2023-07-31T15:48:06;24.00;62.10
30379;DHT22;17168;49.164;9.060;2023-07-31T15:50:40;24.00;62.30
30379;DHT22;17168;49.164;9.060;2023-07-31T15:53:13;24.10;62.50
30379;DHT22;17168;49.164;9.060;2023-07-31T15:55:51;24.20;62.20
30379;DHT22;17168;49.164;9.060;2023-07-31T15:58:24;24.20;62.60
30379;DHT22;17168;49.164;9.060;2023-07-31T16:01:04;24.30;62.20
30379;DHT22;17168;49.164;9.060;2023-07-31T16:03:36;24.40;62.10
30379;DHT22;17168;49.164;9.060;2023-07-31T16:06:09;24.40;61.80
30379;DHT22;17168;49.164;9.060;2023-07-31T16:08:41;24.40;61.80
30379;DHT22;17168;49.164;9.060;2023-07-31T16:11:13;24.40;61.80
30379;DHT22;17168;49.164;9.060;2023-07-31T16:13:46;24.30;62.00
30379;DHT22;17168;49.164;9.060;2023-07-31T16:16:21;24.30;62.00
30379;DHT22;17168;49.164;9.060;2023-07-31T16:18:55;24.30;62.10
30379;DHT22;17168;49.164;9.060;2023-07-31T16:21:27;24.20;62.00
30379;DHT22;17168;49.164;9.060;2023-07-31T16:24:00;24.10;62.30
30379;DHT22;17168;49.164;9.060;2023-07-31T16:26:32;24.10;62.20
30379;DHT22;17168;49.164;9.060;2023-07-31T16:29:05;24.00;62.60
30379;DHT22;17168;49.164;9.060;2023-07-31T16:31:40;24.00;62.50